Time;durP1;ratioP1;P1;durP2;ratioP2;P2;SDS_P1;SDS_P2;PMS_P1;PMS_P2;Temp;Humidity;BMP_temperature;BMP_pressure;BME280_temperature;BME280_humidity;BME280_pressure;Samples;Min_cycle;Max_cycle;Signal;HPM_P1;HPM_P2
2024/04/11 00:00:53;;;;;;;9.07;3.53;;;;;;;;;;5412565;26;20018;-56
2024/04/11 00:03:18;;;;;;;14.43;3.92;;;;;;;;;;5381848;26;20008;-55
2024/04/11 00:05:43;;;;;;;12.00;3.65;;;;;;;;;;5402218;26;20032;-56
2024/04/11 00:08:09;;;;;;;12.18;3.78;;;;;;;;;;5418756;26;20007;-56
2024/04/11 00:10:34;;;;;;;11.45;3.35;;;;;;;;;;5419048;26;20002;-54
2024/04/11 00:12:59;;;;;;;12.77;4.10;;;;;;;;;;5412614;26;20000;-57
2024/04/11 00:15:24;;;;;;;11.93;3.72;;;;;;;;;;5417183;26;20120;-53
2024/04/11 00:17:49;;;;;;;11.65;3.50;;;;;;;;;;5419013;26;19991;-55
2024/04/11 00:20:15;;;;;;;11.82;3.88;;;;;;;;;;5418738;26;19991;-56
2024/04/11 00:22:40;;;;;;;11.60;3.65;;;;;;;;;;5419100;26;19996;-56
2024/04/11 00:25:05;;;;;;;13.43;3.33;;;;;;;;;;5416948;26;20003;-57
2024/04/11 00:27:30;;;;;;;12.75;3.38;;;;;;;;;;5386797;26;20243;-57
2024/04/11 00:29:56;;;;;;;8.73;3.78;;;;;;;;;;5386909;26;20416;-57
2024/04/11 00:32:23;;;;;;;12.98;3.97;;;;;;;;;;5386972;26;20000;-56
2024/04/11 00:34:48;;;;;;;14.13;3.60;;;;;;;;;;5419905;26;20072;-55
2024/04/11 00:37:15;;;;;;;12.77;3.10;;;;;;;;;;5420530;26;20003;-56
2024/04/11 00:39:40;;;;;;;10.55;3.15;;;;;;;;;;5421782;26;19995;-56
2024/04/11 00:42:07;;;;;;;13.73;3.13;;;;;;;;;;5422209;26;20010;-55
2024/04/11 00:44:32;;;;;;;10.88;3.15;;;;;;;;;;5422121;26;19999;-56
2024/04/11 00:46:58;;;;;;;11.77;3.30;;;;;;;;;;5421758;26;19996;-57
2024/04/11 00:49:23;;;;;;;14.27;3.22;;;;;;;;;;5422002;26;19996;-56
2024/04/11 00:51:50;;;;;;;11.73;3.17;;;;;;;;;;5421678;26;20404;-56
2024/04/11 00:54:17;;;;;;;11.07;3.17;;;;;;;;;;5421757;26;20011;-55
2024/04/11 00:56:44;;;;;;;12.07;3.35;;;;;;;;;;5421611;26;20032;-55
2024/04/11 00:59:09;;;;;;;10.77;3.00;;;;;;;;;;5421714;26;20003;-55
2024/04/11 01:01:34;;;;;;;10.55;3.15;;;;;;;;;;5407006;26;20000;-56
2024/04/11 01:04:01;;;;;;;8.00;2.60;;;;;;;;;;5386164;26;20007;-56
2024/04/11 01:06:26;;;;;;;12.88;3.47;;;;;;;;;;5383857;26;20011;-56
2024/04/11 01:08:51;;;;;;;11.88;2.95;;;;;;;;;;5385624;26;20000;-56
2024/04/11 01:11:17;;;;;;;12.93;2.75;;;;;;;;;;5393362;26;20015;-56
2024/04/11 01:13:44;;;;;;;12.80;2.83;;;;;;;;;;5421466;26;19996;-54
2024/04/11 01:16:09;;;;;;;12.40;2.88;;;;;;;;;;5419616;26;19991;-54
2024/04/11 01:18:34;;;;;;;10.88;3.05;;;;;;;;;;5418276;26;20073;-54
2024/04/11 01:21:00;;;;;;;12.20;3.05;;;;;;;;;;5392939;26;20011;-56
2024/04/11 01:23:25;;;;;;;11.32;2.83;;;;;;;;;;5385795;26;19996;-56
2024/04/11 01:25:50;;;;;;;9.38;2.60;;;;;;;;;;5385557;26;20008;-57
2024/04/11 01:28:15;;;;;;;8.50;2.67;;;;;;;;;;5396239;26;19999;-54
2024/04/11 01:30:41;;;;;;;9.90;2.53;;;;;;;;;;5417915;26;19999;-56
2024/04/11 01:33:09;;;;;;;8.60;2.63;;;;;;;;;;5421202;26;19996;-57
2024/04/11 01:35:35;;;;;;;8.00;2.50;;;;;;;;;;5419948;26;20052;-53
2024/04/11 01:38:00;;;;;;;9.27;3.03;;;;;;;;;;5421278;26;20007;-54
2024/04/11 01:40:27;;;;;;;11.20;2.67;;;;;;;;;;5399792;26;20015;-53
2024/04/11 01:42:54;;;;;;;11.00;3.00;;;;;;;;;;5384109;26;20008;-56
2024/04/11 01:45:19;;;;;;;13.02;2.97;;;;;;;;;;5385678;26;19997;-53
2024/04/11 01:47:44;;;;;;;13.25;2.88;;;;;;;;;;5393360;26;20024;-55
2024/04/11 01:50:10;;;;;;;9.52;3.10;;;;;;;;;;5404342;26;20000;-57
2024/04/11 01:52:35;;;;;;;6.47;2.13;;;;;;;;;;5385407;26;20000;-54
2024/04/11 01:55:01;;;;;;;9.60;2.60;;;;;;;;;;5385204;26;19996;-55
2024/04/11 01:57:28;;;;;;;10.32;2.30;;;;;;;;;;5413680;26;19999;-56
2024/04/11 01:59:55;;;;;;;8.68;2.47;;;;;;;;;;5420738;26;20000;-57
2024/04/11 02:02:21;;;;;;;9.40;2.83;;;;;;;;;;5404674;26;20012;-55
2024/04/11 02:04:47;;;;;;;10.85;2.65;;;;;;;;;;5385312;26;20291;-56
2024/04/11 02:07:12;;;;;;;9.13;2.55;;;;;;;;;;5385207;26;20003;-56
2024/04/11 02:09:37;;;;;;;8.15;2.38;;;;;;;;;;5385293;26;19993;-57
2024/04/11 02:12:03;;;;;;;9.30;2.53;;;;;;;;;;5384719;26;20031;-55
2024/04/11 02:14:29;;;;;;;8.70;2.30;;;;;;;;;;5386024;26;20036;-55
2024/04/11 02:16:59;;;;;;;9.13;2.35;;;;;;;;;;5385136;26;20306;-57
2024/04/11 02:19:26;;;;;;;8.23;2.40;;;;;;;;;;5384937;26;19996;-56
2024/04/11 02:21:51;;;;;;;7.18;2.10;;;;;;;;;;5385188;26;19997;-56
2024/04/11 02:24:17;;;;;;;7.22;2.25;;;;;;;;;;5393341;26;20413;-55
2024/04/11 02:26:48;;;;;;;8.70;2.58;;;;;;;;;;5400147;26;20004;-56
2024/04/11 02:29:14;;;;;;;8.70;1.90;;;;;;;;;;5385310;26;20440;-56
2024/04/11 02:31:40;;;;;;;8.32;2.15;;;;;;;;;;5384855;26;20004;-54
2024/04/11 02:34:06;;;;;;;8.85;2.63;;;;;;;;;;5384916;26;20427;-57
2024/04/11 02:36:31;;;;;;;7.13;2.03;;;;;;;;;;5384795;26;20111;-56
2024/04/11 02:38:57;;;;;;;8.43;2.00;;;;;;;;;;5407949;26;20080;-55
2024/04/11 02:41:22;;;;;;;9.15;2.40;;;;;;;;;;5419821;26;20011;-56
2024/04/11 02:43:48;;;;;;;10.10;2.15;;;;;;;;;;5420329;26;20351;-56
2024/04/11 02:46:16;;;;;;;5.03;1.70;;;;;;;;;;5419889;26;20007;-57
2024/04/11 02:48:42;;;;;;;6.82;2.25;;;;;;;;;;5419706;26;20010;-57
2024/04/11 02:51:08;;;;;;;7.93;2.17;;;;;;;;;;5419044;26;20408;-57
2024/04/11 02:53:33;;;;;;;8.80;2.58;;;;;;;;;;5420362;26;20003;-53
2024/04/11 02:55:58;;;;;;;7.60;2.17;;;;;;;;;;5420035;26;20424;-57
2024/04/11 02:58:23;;;;;;;7.63;2.47;;;;;;;;;;5420113;26;20000;-57
2024/04/11 03:00:58;;;;;;;9.63;2.47;;;;;;;;;;5430600;20;20395;-88
2024/04/11 03:03:23;;;;;;;5.90;2.10;;;;;;;;;;5382295;26;20385;-88
2024/04/11 03:05:48;;;;;;;6.03;2.13;;;;;;;;;;5384703;26;20003;-88
2024/04/11 03:08:15;;;;;;;9.02;2.47;;;;;;;;;;5383083;26;20000;-88
2024/04/11 03:10:41;;;;;;;8.55;2.40;;;;;;;;;;5384515;26;20015;-87
2024/04/11 03:13:07;;;;;;;8.82;2.30;;;;;;;;;;5385082;26;20305;-88
2024/04/11 03:15:33;;;;;;;8.77;2.20;;;;;;;;;;5384791;26;19988;-87
2024/04/11 03:17:59;;;;;;;10.80;2.67;;;;;;;;;;5383230;26;20393;-88
2024/04/11 03:20:24;;;;;;;7.32;2.72;;;;;;;;;;5383057;26;20008;-88
2024/04/11 03:22:51;;;;;;;11.07;3.00;;;;;;;;;;5385516;26;19992;-88
2024/04/11 03:25:16;;;;;;;10.07;2.72;;;;;;;;;;5385036;26;20000;-87
2024/04/11 03:27:43;;;;;;;11.52;2.35;;;;;;;;;;5385730;26;20062;-89
2024/04/11 03:30:09;;;;;;;7.50;2.33;;;;;;;;;;5382679;26;20000;-88
2024/04/11 03:32:38;;;;;;;9.93;2.45;;;;;;;;;;5383494;26;20297;-88
2024/04/11 03:35:04;;;;;;;10.68;3.20;;;;;;;;;;5385419;26;20042;-88
2024/04/11 03:37:29;;;;;;;8.70;2.42;;;;;;;;;;5383478;26;20409;-88
2024/04/11 03:39:57;;;;;;;7.80;2.80;;;;;;;;;;5385100;26;20015;-88
2024/04/11 03:42:23;;;;;;;8.68;2.50;;;;;;;;;;5385047;26;19996;-88
2024/04/11 03:44:49;;;;;;;7.63;2.47;;;;;;;;;;5385072;26;19998;-88
2024/04/11 03:47:14;;;;;;;8.73;2.20;;;;;;;;;;5382607;26;19996;-88
2024/04/11 03:49:39;;;;;;;9.63;2.15;;;;;;;;;;5385502;26;19988;-88
2024/04/11 03:52:05;;;;;;;8.88;2.40;;;;;;;;;;5385871;26;20004;-88
2024/04/11 03:54:32;;;;;;;7.95;2.50;;;;;;;;;;5383703;26;20425;-88
2024/04/11 03:56:58;;;;;;;10.18;2.53;;;;;;;;;;5384909;26;20437;-88
2024/04/11 03:59:26;;;;;;;10.77;2.38;;;;;;;;;;5381942;26;20046;-88
2024/04/11 04:01:51;;;;;;;8.73;2.10;;;;;;;;;;5379293;21;20008;-52
2024/04/11 04:04:19;;;;;;;7.55;2.58;;;;;;;;;;5349371;26;20004;-54
2024/04/11 04:06:44;;;;;;;5.18;2.08;;;;;;;;;;5349148;26;20433;-56
2024/04/11 04:09:10;;;;;;;8.65;2.45;;;;;;;;;;5337228;26;20080;-55
2024/04/11 04:11:36;;;;;;;12.27;3.00;;;;;;;;;;5285108;27;20010;-56
2024/04/11 04:14:03;;;;;;;9.98;2.50;;;;;;;;;;5315937;26;20069;-53
2024/04/11 04:16:28;;;;;;;8.43;2.50;;;;;;;;;;5314848;27;20426;-53
2024/04/11 04:18:54;;;;;;;12.50;2.30;;;;;;;;;;5318536;26;20005;-52
2024/04/11 04:21:26;;;;;;;6.68;2.30;;;;;;;;;;5349199;26;19997;-53
2024/04/11 04:23:55;;;;;;;8.65;2.60;;;;;;;;;;5348637;26;20001;-52
2024/04/11 04:26:21;;;;;;;9.05;2.72;;;;;;;;;;5349098;26;20416;-54
2024/04/11 04:28:48;;;;;;;10.60;2.35;;;;;;;;;;5348533;26;20037;-53
2024/04/11 04:31:17;;;;;;;8.38;2.38;;;;;;;;;;5315384;26;20002;-55
2024/04/11 04:33:47;;;;;;;7.10;2.67;;;;;;;;;;5284142;27;20006;-54
2024/04/11 04:36:16;;;;;;;8.75;2.80;;;;;;;;;;5314414;27;20033;-56
2024/04/11 04:38:41;;;;;;;10.38;2.45;;;;;;;;;;5284002;27;19998;-57
2024/04/11 04:41:07;;;;;;;8.90;2.80;;;;;;;;;;5315153;26;20005;-55
2024/04/11 04:43:32;;;;;;;9.27;2.53;;;;;;;;;;5314943;27;20001;-57
2024/04/11 04:45:58;;;;;;;8.80;2.78;;;;;;;;;;5314934;27;19993;-58
2024/04/11 04:48:23;;;;;;;9.80;2.70;;;;;;;;;;5314867;27;20001;-58
2024/04/11 04:50:49;;;;;;;8.98;2.67;;;;;;;;;;5284308;27;19994;-57
2024/04/11 04:53:14;;;;;;;7.72;2.67;;;;;;;;;;5324019;26;20079;-54
2024/04/11 04:55:40;;;;;;;10.02;2.33;;;;;;;;;;5349156;26;20001;-56
2024/04/11 04:58:05;;;;;;;11.50;2.70;;;;;;;;;;5349095;26;20047;-57
2024/04/11 05:00:32;;;;;;;9.23;2.40;;;;;;;;;;5348844;26;20045;-57
2024/04/11 05:03:03;;;;;;;9.98;2.60;;;;;;;;;;5319252;26;20367;-56
2024/04/11 05:05:28;;;;;;;8.88;2.50;;;;;;;;;;5326949;26;20020;-57
2024/04/11 05:07:54;;;;;;;10.35;2.75;;;;;;;;;;5348914;26;20305;-56
2024/04/11 05:10:20;;;;;;;8.32;2.60;;;;;;;;;;5324591;26;20002;-58
2024/04/11 05:12:49;;;;;;;9.60;2.75;;;;;;;;;;5318282;26;20032;-55
2024/04/11 05:15:14;;;;;;;9.48;3.00;;;;;;;;;;5317431;27;20010;-56
2024/04/11 05:17:43;;;;;;;11.13;3.28;;;;;;;;;;5328413;26;19997;-53
2024/04/11 05:20:17;;;;;;;6.78;2.40;;;;;;;;;;5340099;26;20411;-57
2024/04/11 05:22:46;;;;;;;8.13;2.45;;;;;;;;;;5317414;26;20020;-53
2024/04/11 05:25:14;;;;;;;10.55;2.80;;;;;;;;;;5317393;27;20029;-54
2024/04/11 05:27:39;;;;;;;8.85;2.70;;;;;;;;;;5317375;27;20033;-56
2024/04/11 05:30:10;;;;;;;8.00;2.70;;;;;;;;;;5326896;26;20015;-57
2024/04/11 05:32:36;;;;;;;8.93;2.70;;;;;;;;;;5351693;26;20001;-56
2024/04/11 05:35:06;;;;;;;9.40;2.90;;;;;;;;;;5352003;26;20008;-57
2024/04/11 05:37:31;;;;;;;10.63;2.70;;;;;;;;;;5351725;26;20441;-57
2024/04/11 05:39:57;;;;;;;7.80;2.90;;;;;;;;;;5349232;26;20005;-55
2024/04/11 05:42:25;;;;;;;9.13;2.72;;;;;;;;;;5352063;26;20001;-57
2024/04/11 05:44:50;;;;;;;10.23;2.60;;;;;;;;;;5351957;26;20009;-54
2024/04/11 05:47:15;;;;;;;7.97;2.88;;;;;;;;;;5351852;26;20000;-57
2024/04/11 05:49:41;;;;;;;11.00;3.03;;;;;;;;;;5352028;26;19993;-55
2024/04/11 05:52:08;;;;;;;9.13;3.10;;;;;;;;;;5343266;26;20020;-57
2024/04/11 05:54:33;;;;;;;11.65;2.72;;;;;;;;;;5317186;27;20352;-57
2024/04/11 05:56:58;;;;;;;11.55;3.03;;;;;;;;;;5317300;27;20069;-57
2024/04/11 05:59:24;;;;;;;7.22;2.42;;;;;;;;;;5314930;27;20008;-55
2024/04/11 06:01:50;;;;;;;9.27;2.65;;;;;;;;;;5319635;26;20398;-55
2024/04/11 06:04:16;;;;;;;10.93;2.70;;;;;;;;;;5351409;26;20000;-54
2024/04/11 06:06:41;;;;;;;10.10;3.05;;;;;;;;;;5351313;26;20008;-56
2024/04/11 06:09:08;;;;;;;7.60;2.88;;;;;;;;;;5335312;26;20002;-56
2024/04/11 06:11:33;;;;;;;8.98;3.10;;;;;;;;;;5316724;27;20029;-55
2024/04/11 06:13:58;;;;;;;9.93;2.97;;;;;;;;;;5327035;26;20005;-56
2024/04/11 06:16:24;;;;;;;9.27;2.50;;;;;;;;;;5321227;26;20001;-57
2024/04/11 06:18:50;;;;;;;11.88;3.00;;;;;;;;;;5349409;26;20001;-57
2024/04/11 06:21:18;;;;;;;10.48;3.03;;;;;;;;;;5316307;27;20425;-58
2024/04/11 06:23:44;;;;;;;12.68;3.17;;;;;;;;;;5323130;26;20008;-57
2024/04/11 06:26:13;;;;;;;11.90;3.17;;;;;;;;;;5351512;26;20071;-56
2024/04/11 06:28:38;;;;;;;9.70;2.75;;;;;;;;;;5351218;26;20024;-56
2024/04/11 06:31:04;;;;;;;10.65;2.88;;;;;;;;;;5351265;26;20292;-58
2024/04/11 06:33:31;;;;;;;13.32;2.80;;;;;;;;;;5351314;26;20067;-58
2024/04/11 06:35:58;;;;;;;10.70;2.92;;;;;;;;;;5340850;26;20045;-53
2024/04/11 06:38:23;;;;;;;14.60;2.85;;;;;;;;;;5285847;27;20012;-58
2024/04/11 06:40:50;;;;;;;10.23;2.70;;;;;;;;;;5316265;27;20006;-56
2024/04/11 06:43:16;;;;;;;7.90;2.78;;;;;;;;;;5316145;27;20419;-58
2024/04/11 06:45:43;;;;;;;10.05;2.97;;;;;;;;;;5316227;27;20004;-58
2024/04/11 06:48:08;;;;;;;10.25;2.83;;;;;;;;;;5330560;26;20080;-58
2024/04/11 06:50:33;;;;;;;10.73;3.28;;;;;;;;;;5350648;26;20012;-57
2024/04/11 06:53:08;;;;;;;14.13;3.03;;;;;;;;;;5350444;26;20076;-57
2024/04/11 06:55:34;;;;;;;9.52;3.08;;;;;;;;;;5341922;26;20006;-58
2024/04/11 06:58:01;;;;;;;13.23;3.17;;;;;;;;;;5284611;27;20072;-58
2024/04/11 07:00:36;;;;;;;9.63;3.00;;;;;;;;;;5333296;26;20001;-58
2024/04/11 07:03:13;;;;;;;10.23;2.90;;;;;;;;;;5350458;26;20005;-58
2024/04/11 07:05:46;;;;;;;8.82;3.10;;;;;;;;;;5350419;26;20011;-57
2024/04/11 07:08:14;;;;;;;14.95;3.22;;;;;;;;;;5350351;26;20015;-58
2024/04/11 07:10:46;;;;;;;12.02;2.90;;;;;;;;;;5332314;26;20006;-53
2024/04/11 07:13:12;;;;;;;11.13;3.38;;;;;;;;;;5315771;27;20084;-57
2024/04/11 07:15:42;;;;;;;12.48;3.15;;;;;;;;;;5316005;26;20006;-58
2024/04/11 07:18:14;;;;;;;11.88;3.05;;;;;;;;;;5324068;26;20001;-58
2024/04/11 07:20:39;;;;;;;11.43;3.25;;;;;;;;;;5347535;26;20005;-58
2024/04/11 07:23:06;;;;;;;9.48;2.60;;;;;;;;;;5350358;26;20008;-58
2024/04/11 07:25:35;;;;;;;9.88;2.72;;;;;;;;;;5346649;26;20016;-58
2024/04/11 07:28:00;;;;;;;8.05;2.65;;;;;;;;;;5336233;26;20016;-56
2024/04/11 07:30:26;;;;;;;12.20;2.92;;;;;;;;;;5316152;27;20396;-58
2024/04/11 07:32:56;;;;;;;15.63;3.03;;;;;;;;;;5338585;26;20001;-57
2024/04/11 07:35:26;;;;;;;10.75;2.90;;;;;;;;;;5350140;26;19997;-57
2024/04/11 07:37:51;;;;;;;9.20;3.28;;;;;;;;;;5349772;26;20000;-56
2024/04/11 07:40:32;;;;;;;9.40;2.88;;;;;;;;;;5350179;26;20361;-57
2024/04/11 07:43:05;;;;;;;12.82;2.78;;;;;;;;;;5350263;26;20410;-58
2024/04/11 07:45:31;;;;;;;21.23;3.80;;;;;;;;;;5319660;26;20013;-58
2024/04/11 07:47:59;;;;;;;11.25;2.97;;;;;;;;;;5315856;27;20026;-58
2024/04/11 07:50:26;;;;;;;11.35;2.85;;;;;;;;;;5315860;27;20419;-58
2024/04/11 07:52:52;;;;;;;12.38;2.85;;;;;;;;;;5315684;27;19998;-58
2024/04/11 07:55:17;;;;;;;14.02;3.08;;;;;;;;;;5315725;27;20303;-57
2024/04/11 07:57:42;;;;;;;11.13;3.03;;;;;;;;;;5314292;27;20005;-58
2024/04/11 08:00:20;;;;;;;10.50;3.05;;;;;;;;;;5315360;27;20422;-57
2024/04/11 08:02:45;;;;;;;11.70;3.20;;;;;;;;;;5315236;27;19994;-58
2024/04/11 08:05:10;;;;;;;13.30;3.03;;;;;;;;;;5315162;27;20302;-58
2024/04/11 08:07:35;;;;;;;8.75;2.92;;;;;;;;;;5315040;27;19994;-58
2024/04/11 08:10:01;;;;;;;10.70;3.40;;;;;;;;;;5315437;27;20065;-56
2024/04/11 08:12:27;;;;;;;11.77;3.30;;;;;;;;;;5315170;27;20291;-58
2024/04/11 08:14:52;;;;;;;12.57;3.33;;;;;;;;;;5315252;27;19998;-57
2024/04/11 08:17:17;;;;;;;11.27;3.10;;;;;;;;;;5315002;27;20084;-57
2024/04/11 08:19:44;;;;;;;15.02;3.00;;;;;;;;;;5315246;27;20407;-58
2024/04/11 08:22:09;;;;;;;16.80;3.08;;;;;;;;;;5348626;26;20020;-58
2024/04/11 08:24:35;;;;;;;15.50;3.10;;;;;;;;;;5349662;26;20298;-57
2024/04/11 08:27:00;;;;;;;14.32;2.88;;;;;;;;;;5349653;26;19993;-59
2024/04/11 08:29:25;;;;;;;14.13;2.97;;;;;;;;;;5349779;26;20000;-58
2024/04/11 08:31:50;;;;;;;12.63;2.60;;;;;;;;;;5319382;26;20001;-59
2024/04/11 08:34:16;;;;;;;12.15;2.72;;;;;;;;;;5349632;26;19997;-58
2024/04/11 08:36:42;;;;;;;11.15;2.55;;;;;;;;;;5349523;26;19997;-56
2024/04/11 08:39:09;;;;;;;8.35;2.70;;;;;;;;;;5349585;26;20001;-59
2024/04/11 08:41:34;;;;;;;12.43;2.65;;;;;;;;;;5349813;26;20003;-60
2024/04/11 08:44:00;;;;;;;10.57;3.15;;;;;;;;;;5349593;26;20001;-59
2024/04/11 08:46:25;;;;;;;16.60;2.88;;;;;;;;;;5352988;26;19993;-58
2024/04/11 08:48:50;;;;;;;10.27;2.85;;;;;;;;;;5352707;26;20065;-58
2024/04/11 08:51:19;;;;;;;7.97;2.75;;;;;;;;;;5352743;26;20001;-60
2024/04/11 08:53:46;;;;;;;9.85;2.90;;;;;;;;;;5352616;26;20012;-57
2024/04/11 08:56:12;;;;;;;11.80;3.35;;;;;;;;;;5352754;26;20001;-59
2024/04/11 08:58:41;;;;;;;9.43;2.95;;;;;;;;;;5350371;26;20056;-57
2024/04/11 09:01:10;;;;;;;14.00;3.25;;;;;;;;;;5352622;26;20000;-59
2024/04/11 09:03:35;;;;;;;12.65;2.95;;;;;;;;;;5352441;26;20416;-59
2024/04/11 09:06:01;;;;;;;11.68;2.97;;;;;;;;;;5321872;26;19992;-58
2024/04/11 09:08:26;;;;;;;16.48;3.10;;;;;;;;;;5352444;26;19997;-60
2024/04/11 09:10:54;;;;;;;16.92;2.92;;;;;;;;;;5352509;26;20004;-60
2024/04/11 09:13:22;;;;;;;11.60;2.88;;;;;;;;;;5352149;26;20008;-56
2024/04/11 09:15:56;;;;;;;15.00;3.33;;;;;;;;;;5352382;26;20071;-60
2024/04/11 09:18:24;;;;;;;12.85;2.90;;;;;;;;;;5352531;26;20000;-58
2024/04/11 09:20:58;;;;;;;13.57;2.70;;;;;;;;;;5352516;26;20005;-56
2024/04/11 09:23:24;;;;;;;13.80;2.92;;;;;;;;;;5352336;26;20001;-58
2024/04/11 09:25:49;;;;;;;17.00;3.38;;;;;;;;;;5352000;26;20012;-58
2024/04/11 09:28:14;;;;;;;12.35;2.92;;;;;;;;;;5351862;26;20003;-57
2024/04/11 09:30:39;;;;;;;14.57;3.28;;;;;;;;;;5351840;26;19993;-59
2024/04/11 09:33:10;;;;;;;16.33;3.63;;;;;;;;;;5352315;26;20302;-59
2024/04/11 09:35:38;;;;;;;;;;;;;;;;;;5352336;26;20011;-57
2024/04/11 09:38:10;;;;;;;14.07;2.90;;;;;;;;;;5321182;26;20223;-59
2024/04/11 09:40:38;;;;;;;11.52;2.88;;;;;;;;;;5351949;26;20012;-57
2024/04/11 09:43:05;;;;;;;13.13;2.90;;;;;;;;;;5321022;26;19993;-57
2024/04/11 09:45:35;;;;;;;13.27;3.22;;;;;;;;;;5351922;26;20000;-56
2024/04/11 09:48:02;;;;;;;15.43;2.70;;;;;;;;;;5320834;26;20329;-55
2024/04/11 09:50:30;;;;;;;9.45;2.60;;;;;;;;;;5351654;26;20294;-56
2024/04/11 09:52:56;;;;;;;15.75;3.00;;;;;;;;;;5351900;26;20311;-58
2024/04/11 09:55:33;;;;;;;12.50;2.78;;;;;;;;;;5351433;26;20012;-58
2024/04/11 09:57:58;;;;;;;11.98;2.30;;;;;;;;;;5349324;26;20319;-58
2024/04/11 10:00:48;;;;;;;16.33;3.25;;;;;;;;;;5351437;26;20004;-57
2024/04/11 10:03:22;;;;;;;20.10;3.10;;;;;;;;;;5349435;26;20011;-58
2024/04/11 10:05:50;;;;;;;12.65;2.40;;;;;;;;;;5351487;26;20314;-58
2024/04/11 10:08:31;;;;;;;11.82;2.85;;;;;;;;;;5351407;26;20011;-58
2024/04/11 10:11:03;;;;;;;9.32;2.55;;;;;;;;;;5351507;26;20021;-58
2024/04/11 10:13:34;;;;;;;14.80;2.47;;;;;;;;;;5351386;26;20008;-58
2024/04/11 10:16:21;;;;;;;10.35;2.72;;;;;;;;;;5351427;26;20008;-57
2024/04/11 10:18:52;;;;;;;15.55;2.80;;;;;;;;;;5351007;26;19997;-58
2024/04/11 10:21:26;;;;;;;11.57;3.95;;;;;;;;;;5351347;26;20488;-58
2024/04/11 10:23:52;;;;;;;9.95;2.72;;;;;;;;;;5316884;27;20001;-58
2024/04/11 10:26:27;;;;;;;8.57;2.35;;;;;;;;;;5317085;27;20065;-57
2024/04/11 10:28:56;;;;;;;8.63;2.40;;;;;;;;;;5316994;27;20001;-57
2024/04/11 10:31:25;;;;;;;11.90;2.50;;;;;;;;;;5316821;27;20002;-57
2024/04/11 10:34:10;;;;;;;8.60;2.10;;;;;;;;;;5316953;27;20009;-58
2024/04/11 10:36:35;;;;;;;9.57;2.25;;;;;;;;;;5316631;27;20067;-57
2024/04/11 10:39:01;;;;;;;13.52;2.63;;;;;;;;;;5316785;27;20005;-59
2024/04/11 10:41:28;;;;;;;6.78;2.10;;;;;;;;;;5316893;27;19998;-56
2024/04/11 10:43:53;;;;;;;10.35;2.40;;;;;;;;;;5286511;27;20009;-57
2024/04/11 10:46:22;;;;;;;9.00;2.30;;;;;;;;;;5316818;27;20002;-57
2024/04/11 10:48:53;;;;;;;12.02;2.65;;;;;;;;;;5316515;27;20012;-58
2024/04/11 10:51:20;;;;;;;;;;;;;;;;;;5317224;27;20002;-54
2024/04/11 10:53:54;;;;;;;8.30;2.38;;;;;;;;;;5316722;27;20280;-58
2024/04/11 10:56:20;;;;;;;12.45;2.22;;;;;;;;;;5316301;27;20001;-57
2024/04/11 10:58:47;;;;;;;9.85;2.50;;;;;;;;;;5286075;27;20287;-56
2024/04/11 11:01:13;;;;;;;9.48;2.08;;;;;;;;;;5315745;27;20092;-58
2024/04/11 11:06:12;;;;;;;11.38;2.38;;;;;;;;;;5317144;27;20296;-58
2024/04/11 11:08:43;;;;;;;15.10;2.35;;;;;;;;;;5315801;27;19998;-57
2024/04/11 11:11:11;;;;;;;11.50;2.40;;;;;;;;;;5315931;27;20007;-58
2024/04/11 11:13:38;;;;;;;9.13;2.25;;;;;;;;;;5315885;27;20421;-58
2024/04/11 11:16:05;;;;;;;10.00;2.45;;;;;;;;;;5315756;27;19998;-58
2024/04/11 11:18:33;;;;;;;12.65;2.20;;;;;;;;;;5315811;27;20088;-57
2024/04/11 11:21:00;;;;;;;9.45;2.17;;;;;;;;;;5331738;26;20012;-57
2024/04/11 11:23:26;;;;;;;17.25;2.75;;;;;;;;;;5350684;26;19999;-58
2024/04/11 11:25:53;;;;;;;8.90;2.38;;;;;;;;;;5350596;26;20005;-58
2024/04/11 11:28:21;;;;;;;7.88;2.05;;;;;;;;;;5350593;26;20011;-58
2024/04/11 11:30:48;;;;;;;12.68;2.17;;;;;;;;;;5350310;26;20012;-58
2024/04/11 11:33:17;;;;;;;8.63;2.05;;;;;;;;;;5350609;26;20001;-57
2024/04/11 11:35:42;;;;;;;8.57;1.85;;;;;;;;;;5350464;26;20319;-55
2024/04/11 11:38:08;;;;;;;10.13;2.10;;;;;;;;;;5350387;26;20063;-58
2024/04/11 11:40:38;;;;;;;10.32;1.65;;;;;;;;;;5350609;26;20004;-58
2024/04/11 11:43:06;;;;;;;10.95;2.20;;;;;;;;;;5350531;26;20434;-58
2024/04/11 11:45:44;;;;;;;10.10;2.05;;;;;;;;;;5350498;26;20004;-55
2024/04/11 11:48:12;;;;;;;11.05;2.20;;;;;;;;;;5349929;26;20008;-53
2024/04/11 11:50:38;;;;;;;7.28;2.00;;;;;;;;;;5350398;26;20029;-56
2024/04/11 11:55:55;;;;;;;8.63;2.10;;;;;;;;;;5351109;26;20008;-58
2024/04/11 11:58:23;;;;;;;5.78;1.70;;;;;;;;;;5349621;26;20033;-58
2024/04/11 12:00:59;;;;;;;11.85;1.92;;;;;;;;;;5349255;26;20001;-55
2024/04/11 12:03:24;;;;;;;6.80;1.90;;;;;;;;;;5348843;26;19997;-58
2024/04/11 12:05:50;;;;;;;4.97;1.45;;;;;;;;;;5319291;26;20007;-60
2024/04/11 12:08:16;;;;;;;9.73;2.33;;;;;;;;;;5319080;26;20403;-58
2024/04/11 12:13:35;;;;;;;10.98;1.88;;;;;;;;;;5350854;26;20299;-56
2024/04/11 12:16:03;;;;;;;7.50;2.10;;;;;;;;;;5349466;26;20008;-55
2024/04/11 12:18:30;;;;;;;8.38;2.10;;;;;;;;;;5349589;26;20005;-57
2024/04/11 12:20:58;;;;;;;10.13;1.90;;;;;;;;;;5349491;26;20001;-56
2024/04/11 12:23:24;;;;;;;13.27;2.20;;;;;;;;;;5349880;26;19996;-56
2024/04/11 12:25:50;;;;;;;6.38;1.92;;;;;;;;;;5349860;26;20079;-57
2024/04/11 12:28:19;;;;;;;7.15;1.65;;;;;;;;;;5318935;26;20067;-56
2024/04/11 12:30:46;;;;;;;8.07;2.15;;;;;;;;;;5349472;26;20067;-57
2024/04/11 12:33:11;;;;;;;7.40;1.98;;;;;;;;;;5349152;26;20475;-57
2024/04/11 12:35:46;;;;;;;5.53;2.03;;;;;;;;;;5349381;26;20008;-54
2024/04/11 12:38:14;;;;;;;8.50;2.10;;;;;;;;;;5349370;26;20012;-57
2024/04/11 12:40:41;;;;;;;9.73;1.88;;;;;;;;;;5349305;26;20003;-56
2024/04/11 12:43:07;;;;;;;9.15;2.60;;;;;;;;;;5349186;26;20005;-56
2024/04/11 12:45:32;;;;;;;7.90;1.80;;;;;;;;;;5349235;26;20477;-56
2024/04/11 12:48:04;;;;;;;8.85;1.95;;;;;;;;;;5349115;26;20007;-55
2024/04/11 12:50:30;;;;;;;9.88;2.85;;;;;;;;;;5349134;26;20007;-56
2024/04/11 12:52:56;;;;;;;6.47;1.70;;;;;;;;;;5349114;26;19997;-59
2024/04/11 12:55:24;;;;;;;7.75;2.25;;;;;;;;;;5349083;26;20032;-58
2024/04/11 12:58:01;;;;;;;12.80;2.20;;;;;;;;;;5348816;26;19997;-58
2024/04/11 13:00:35;;;;;;;9.38;2.20;;;;;;;;;;5348531;26;20437;-58
2024/04/11 13:03:06;;;;;;;10.43;1.95;;;;;;;;;;5348167;26;20008;-59
2024/04/11 13:05:44;;;;;;;6.50;1.83;;;;;;;;;;5348876;26;20015;-58
2024/04/11 13:08:10;;;;;;;7.10;1.95;;;;;;;;;;5348289;26;20029;-58
2024/04/11 13:10:35;;;;;;;10.65;2.03;;;;;;;;;;5348742;26;20012;-57
2024/04/11 13:13:02;;;;;;;12.00;2.42;;;;;;;;;;5348468;26;20004;-56
2024/04/11 13:15:43;;;;;;;11.93;2.63;;;;;;;;;;5348560;26;20075;-54
2024/04/11 13:18:11;;;;;;;6.47;2.17;;;;;;;;;;5348096;26;19993;-58
2024/04/11 13:20:37;;;;;;;8.43;2.03;;;;;;;;;;5348882;26;20016;-56
2024/04/11 13:23:21;;;;;;;9.65;2.17;;;;;;;;;;5348826;26;19997;-57
2024/04/11 13:25:47;;;;;;;8.18;1.95;;;;;;;;;;5348624;26;19997;-56
2024/04/11 13:28:13;;;;;;;9.05;2.03;;;;;;;;;;5348564;26;20025;-57
2024/04/11 13:30:42;;;;;;;8.43;2.20;;;;;;;;;;5348369;26;20001;-58
2024/04/11 13:33:14;;;;;;;7.55;2.30;;;;;;;;;;5351642;26;20016;-57
2024/04/11 13:35:48;;;;;;;11.50;2.47;;;;;;;;;;5351733;26;20000;-57
2024/04/11 13:38:14;;;;;;;6.53;1.90;;;;;;;;;;5321030;26;20021;-57
2024/04/11 13:43:05;;;;;;;7.93;2.50;;;;;;;;;;5351636;26;19989;-58
2024/04/11 13:45:35;;;;;;;8.27;2.80;;;;;;;;;;5351629;26;20028;-56
2024/04/11 13:48:00;;;;;;;15.23;3.58;;;;;;;;;;5351360;26;19996;-57
2024/04/11 13:50:43;;;;;;;10.70;2.20;;;;;;;;;;5351722;26;20004;-57
2024/04/11 13:53:13;;;;;;;10.18;2.63;;;;;;;;;;5351845;26;20510;-56
2024/04/11 13:55:41;;;;;;;6.38;2.22;;;;;;;;;;5351695;26;20008;-56
2024/04/11 13:58:07;;;;;;;7.65;2.05;;;;;;;;;;5321003;26;19997;-55
2024/04/11 14:00:36;;;;;;;9.35;3.30;;;;;;;;;;5350384;26;20016;-56
2024/04/11 14:03:23;;;;;;;11.15;3.05;;;;;;;;;;5350726;26;19997;-57
2024/04/11 14:06:06;;;;;;;13.30;5.40;;;;;;;;;;5351239;26;19996;-57
2024/04/11 14:08:31;;;;;;;9.52;2.28;;;;;;;;;;5351149;26;20067;-58
2024/04/11 14:10:57;;;;;;;13.15;2.45;;;;;;;;;;5351526;26;19997;-57
2024/04/11 14:13:23;;;;;;;8.73;2.30;;;;;;;;;;5351483;26;20001;-58
2024/04/11 14:15:52;;;;;;;9.90;2.17;;;;;;;;;;5351548;26;20014;-57
2024/04/11 14:18:18;;;;;;;7.97;2.97;;;;;;;;;;5351333;26;20480;-58
2024/04/11 14:20:50;;;;;;;9.98;2.28;;;;;;;;;;5351222;26;20013;-57
2024/04/11 14:23:32;;;;;;;7.90;2.00;;;;;;;;;;5351912;26;20004;-57
2024/04/11 14:26:06;;;;;;;7.40;2.00;;;;;;;;;;5342172;26;20020;-58
2024/04/11 14:28:34;;;;;;;9.32;2.13;;;;;;;;;;5337441;26;20005;-60
2024/04/11 14:31:08;;;;;;;8.25;2.30;;;;;;;;;;5317717;26;20013;-58
2024/04/11 14:34:19;;;;;;;13.50;2.92;;;;;;;;;;5316619;27;20002;-58
2024/04/11 14:36:36;;;;;;;9.40;3.10;;;;;;;;;;5324144;26;20004;-57
2024/04/11 14:39:05;;;;;;;10.77;2.28;;;;;;;;;;5350748;26;20008;-58
2024/04/11 14:41:30;;;;;;;6.22;2.28;;;;;;;;;;5350963;26;20365;-57
2024/04/11 14:43:59;;;;;;;7.10;2.47;;;;;;;;;;5347947;26;20079;-57
2024/04/11 14:46:25;;;;;;;9.30;2.00;;;;;;;;;;5351163;26;20001;-57
2024/04/11 14:48:53;;;;;;;8.60;2.47;;;;;;;;;;5349594;26;20294;-57
2024/04/11 14:51:26;;;;;;;9.15;2.15;;;;;;;;;;5328467;26;20002;-57